Time;durP1;ratioP1;P1;durP2;ratioP2;P2;SDS_P1;SDS_P2;PMS_P1;PMS_P2;Temp;Humidity;BMP_temperature;BMP_pressure;BME280_temperature;BME280_humidity;BME280_pressure;Samples;Min_cycle;Max_cycle;Signal;HPM_P1;HPM_P2
2021/11/12 00:12:34;;;;;;;10.37;6.07;;;3.60;84.20;;;;;;5002535;28;20732;-73
2021/11/12 00:15:00;;;;;;;10.60;5.77;;;3.60;84.20;;;;;;5002345;28;20275;-73
2021/11/12 00:17:32;;;;;;;11.77;6.77;;;3.60;84.30;;;;;;4987252;28;20176;-73
2021/11/12 00:19:59;;;;;;;7.87;5.77;;;3.60;84.30;;;;;;4985924;28;20300;-73
2021/11/12 00:22:25;;;;;;;9.87;5.93;;;3.60;84.50;;;;;;4986321;28;20258;-73
2021/11/12 00:24:53;;;;;;;6.07;5.17;;;3.60;84.50;;;;;;5002767;28;20197;-73
2021/11/12 00:27:20;;;;;;;9.93;5.87;;;3.60;84.70;;;;;;5000889;28;20899;-73
2021/11/12 00:29:54;;;;;;;6.03;5.07;;;3.50;85.00;;;;;;4986053;28;20725;-73
2021/11/12 00:35:16;;;;;;;7.13;4.90;;;3.50;84.80;;;;;;5021737;28;20212;-73
2021/11/12 00:45:35;;;;;;;5.17;4.77;;;3.50;85.10;;;;;;4963403;28;20581;-73
2021/11/12 00:48:22;;;;;;;8.27;5.40;;;3.50;85.00;;;;;;4962228;28;20297;-73
2021/11/12 00:55:45;;;;;;;7.43;4.93;;;3.50;85.10;;;;;;4963616;28;20174;-73
2021/11/12 00:58:13;;;;;;;5.33;4.57;;;3.50;84.90;;;;;;4978619;28;20700;-73
2021/11/12 01:00:40;;;;;;;7.97;5.17;;;3.50;84.70;;;;;;4944233;28;20218;-73
2021/11/12 01:03:06;;;;;;;9.17;4.50;;;3.50;84.70;;;;;;4963833;28;20201;-74
2021/11/12 01:05:31;;;;;;;6.43;4.83;;;3.50;84.70;;;;;;4943109;28;20195;-73
2021/11/12 01:08:01;;;;;;;8.80;4.70;;;3.50;84.70;;;;;;4964268;28;20194;-73
2021/11/12 01:10:29;;;;;;;8.80;4.63;;;3.50;84.70;;;;;;4963922;28;20214;-73
2021/11/12 01:12:55;;;;;;;5.90;4.67;;;3.50;84.70;;;;;;4976521;28;20193;-73
2021/11/12 01:15:21;;;;;;;5.03;3.70;;;3.50;84.90;;;;;;5003638;28;20192;-73
2021/11/12 01:17:48;;;;;;;5.50;4.80;;;3.50;84.80;;;;;;4985871;28;21083;-73
2021/11/12 01:20:16;;;;;;;9.00;4.60;;;3.50;84.80;;;;;;5028312;28;20283;-72
2021/11/12 01:22:43;;;;;;;8.50;4.70;;;3.40;85.00;;;;;;5045034;28;20195;-72
2021/11/12 01:25:11;;;;;;;5.47;3.90;;;3.40;84.90;;;;;;5045093;28;20915;-72
2021/11/12 01:27:39;;;;;;;5.63;4.73;;;3.40;84.80;;;;;;5042660;28;20196;-72
2021/11/12 01:30:06;;;;;;;6.40;3.97;;;3.40;84.80;;;;;;5044665;28;20176;-72
2021/11/12 01:32:32;;;;;;;9.63;4.57;;;3.40;84.70;;;;;;5044509;28;20294;-72
2021/11/12 01:35:00;;;;;;;6.73;4.90;;;3.40;84.80;;;;;;5043452;28;20218;-72
2021/11/12 01:37:27;;;;;;;5.47;4.23;;;3.40;84.90;;;;;;5042963;28;20595;-73
2021/11/12 01:39:57;;;;;;;5.67;4.83;;;3.40;84.90;;;;;;5043343;28;20179;-73
2021/11/12 01:42:26;;;;;;;7.53;4.87;;;3.40;84.80;;;;;;5041784;28;20212;-73
2021/11/12 01:45:08;;;;;;;5.43;4.17;;;3.30;85.00;;;;;;5045105;28;20175;-73
2021/11/12 01:47:59;;;;;;;8.53;4.53;;;3.30;85.20;;;;;;5045827;28;20180;-73
2021/11/12 01:50:27;;;;;;;6.47;4.10;;;3.30;85.50;;;;;;5045748;28;20187;-71
2021/11/12 01:53:01;;;;;;;7.30;4.47;;;3.30;85.60;;;;;;5044385;28;20180;-72
2021/11/12 01:55:44;;;;;;;8.00;4.53;;;3.20;85.40;;;;;;5042418;28;20591;-72
2021/11/12 02:00:42;;;;;;;3.70;3.37;;;3.20;85.60;;;;;;5041355;28;20211;-73
2021/11/12 02:03:09;;;;;;;3.30;3.00;;;3.20;85.50;;;;;;5042762;28;20314;-73
2021/11/12 02:05:35;;;;;;;5.03;4.57;;;3.20;85.40;;;;;;5042476;28;20779;-73
2021/11/12 02:08:01;;;;;;;3.73;3.43;;;3.20;85.40;;;;;;5043634;28;20263;-73
2021/11/12 02:10:30;;;;;;;5.80;4.57;;;3.20;85.60;;;;;;5044780;28;20191;-73
2021/11/12 02:13:06;;;;;;;8.77;4.87;;;3.10;85.60;;;;;;5044524;28;20187;-73
2021/11/12 02:15:34;;;;;;;5.53;3.47;;;3.10;85.80;;;;;;5043352;28;20195;-73
2021/11/12 02:18:04;;;;;;;4.87;4.00;;;3.00;86.00;;;;;;5043017;28;20191;-73
2021/11/12 02:20:44;;;;;;;5.27;3.60;;;3.00;85.80;;;;;;5046141;28;20712;-73
2021/11/12 02:23:10;;;;;;;7.23;3.47;;;3.00;85.70;;;;;;5040927;28;20199;-73
2021/11/12 02:25:44;;;;;;;8.30;4.10;;;3.00;85.70;;;;;;5043964;28;20921;-73
2021/11/12 02:28:13;;;;;;;3.63;2.87;;;3.00;85.90;;;;;;5046129;28;20858;-73
2021/11/12 02:30:40;;;;;;;5.57;3.23;;;3.00;86.00;;;;;;5044887;28;20183;-72
2021/11/12 02:33:11;;;;;;;6.00;4.10;;;3.00;86.00;;;;;;5048998;28;20191;-72
2021/11/12 02:35:40;;;;;;;3.33;3.00;;;3.00;85.90;;;;;;5046970;28;20669;-71
2021/11/12 02:38:07;;;;;;;5.77;3.37;;;3.00;86.00;;;;;;5048850;28;20183;-72
2021/11/12 02:40:35;;;;;;;2.87;2.67;;;3.00;85.90;;;;;;5047794;28;20210;-72
2021/11/12 02:43:02;;;;;;;3.47;3.20;;;3.00;86.00;;;;;;5048909;28;20633;-73
2021/11/12 02:45:29;;;;;;;4.93;3.13;;;3.00;85.80;;;;;;5046504;28;20203;-73
2021/11/12 02:47:55;;;;;;;4.70;3.37;;;3.00;86.00;;;;;;5045608;28;20206;-73
2021/11/12 02:50:23;;;;;;;4.53;4.13;;;2.90;86.10;;;;;;5047889;28;20245;-73
2021/11/12 02:52:58;;;;;;;3.67;3.17;;;2.90;86.10;;;;;;5045873;28;20237;-72
2021/11/12 02:55:25;;;;;;;4.70;3.47;;;2.90;86.20;;;;;;5049150;28;20177;-73
2021/11/12 02:57:51;;;;;;;5.33;3.63;;;2.80;86.20;;;;;;5049013;28;20681;-73
2021/11/12 03:00:22;;;;;;;4.00;3.60;;;2.90;86.30;;;;;;5045769;28;20191;-72
2021/11/12 03:02:49;;;;;;;2.87;2.70;;;2.80;86.30;;;;;;5044670;28;20190;-72
2021/11/12 03:05:15;;;;;;;4.93;3.17;;;2.80;86.10;;;;;;5048667;28;20207;-72
2021/11/12 03:07:41;;;;;;;3.03;2.83;;;2.80;86.10;;;;;;5046047;28;20276;-72
2021/11/12 03:10:07;;;;;;;4.43;2.90;;;2.80;86.10;;;;;;5047181;28;20179;-72
2021/11/12 03:12:33;;;;;;;5.70;2.27;;;2.80;86.10;;;;;;5046671;28;20325;-72
2021/11/12 03:14:59;;;;;;;3.20;3.00;;;2.80;86.20;;;;;;5045978;28;20729;-72
2021/11/12 03:17:25;;;;;;;3.33;3.13;;;2.80;86.30;;;;;;5043956;28;20199;-72
2021/11/12 03:19:51;;;;;;;3.03;2.77;;;2.70;86.40;;;;;;5045260;28;20240;-72
2021/11/12 03:22:20;;;;;;;3.50;3.20;;;2.70;86.40;;;;;;5043476;28;20776;-73
2021/11/12 03:24:53;;;;;;;2.70;2.50;;;2.70;86.50;;;;;;5045427;28;20278;-73
2021/11/12 05:50:18;;;;;;;13.80;4.30;;;2.20;89.80;;;;;;4941220;28;20205;-73
2021/11/12 05:55:28;;;;;;;5.43;4.27;;;2.30;89.80;;;;;;4969725;28;20408;-73
2021/11/12 05:57:56;;;;;;;4.33;4.00;;;2.30;90.00;;;;;;4974536;28;20697;-74
2021/11/12 06:00:22;;;;;;;5.10;4.43;;;2.40;90.00;;;;;;4973428;28;20182;-73
2021/11/12 06:02:47;;;;;;;7.47;5.13;;;2.40;90.00;;;;;;4965347;28;20323;-73
2021/11/12 06:05:16;;;;;;;5.53;4.73;;;2.50;90.10;;;;;;4974003;28;20182;-73
2021/11/12 06:07:42;;;;;;;5.47;4.30;;;2.50;90.10;;;;;;4971515;28;20214;-72
2021/11/12 06:10:08;;;;;;;6.43;4.10;;;2.60;90.10;;;;;;4961484;28;20279;-73
2021/11/12 06:12:34;;;;;;;9.97;5.27;;;2.60;90.10;;;;;;4976401;28;20376;-73
2021/11/12 06:15:00;;;;;;;6.70;5.63;;;2.70;90.10;;;;;;4972989;28;20198;-72
2021/11/12 06:17:25;;;;;;;5.67;4.67;;;2.80;90.00;;;;;;4966236;28;20289;-73
2021/11/12 06:19:51;;;;;;;6.10;4.17;;;2.90;90.00;;;;;;4972656;28;20406;-73
2021/11/12 06:22:17;;;;;;;4.37;3.97;;;3.00;89.90;;;;;;5012627;28;20207;-73
2021/11/12 06:24:43;;;;;;;7.33;4.87;;;3.10;89.80;;;;;;5046851;28;20232;-72
2021/11/12 06:27:08;;;;;;;6.10;4.23;;;3.30;89.80;;;;;;5048730;28;20229;-73
2021/11/12 06:29:39;;;;;;;8.07;4.83;;;3.50;89.90;;;;;;5045164;28;20183;-75
2021/11/12 06:32:05;;;;;;;9.13;4.23;;;3.80;90.00;;;;;;5044138;28;20321;-73
2021/11/12 06:34:31;;;;;;;12.17;5.57;;;4.20;90.40;;;;;;5042061;28;20202;-73
2021/11/12 06:36:56;;;;;;;10.13;6.53;;;4.70;89.90;;;;;;5045702;28;20179;-73
2021/11/12 06:39:23;;;;;;;6.30;5.70;;;5.20;88.80;;;;;;5044940;28;20195;-73
2021/11/12 06:49:38;;;;;;;6.50;5.30;;;8.10;84.90;;;;;;5024607;28;20192;-72
2021/11/12 06:52:04;;;;;;;11.30;7.50;;;8.90;83.60;;;;;;5023362;28;20620;-72
2021/11/12 06:54:30;;;;;;;10.97;7.20;;;9.70;81.90;;;;;;5021244;28;20251;-73
2021/11/12 06:56:56;;;;;;;14.70;7.60;;;10.40;80.20;;;;;;5001017;28;20274;-73
2021/11/12 06:59:22;;;;;;;12.30;7.47;;;11.10;78.00;;;;;;5023055;28;20959;-73
2021/11/12 07:01:48;;;;;;;13.00;8.73;;;11.70;76.90;;;;;;5001421;28;21630;-73
2021/11/12 07:04:15;;;;;;;12.52;8.05;;;12.30;74.20;;;;;;5002241;28;20185;-73
2021/11/12 07:06:42;;;;;;;16.10;8.98;;;12.80;72.80;;;;;;5007265;28;20200;-74
2021/11/12 07:09:08;;;;;;;17.45;9.32;;;13.40;72.30;;;;;;5024463;28;20184;-74
2021/11/12 07:11:35;;;;;;;18.17;9.32;;;13.90;71.30;;;;;;5021457;28;20706;-73
2021/11/12 07:14:04;;;;;;;19.50;10.68;;;14.50;69.90;;;;;;4996127;28;20243;-74
2021/11/12 07:16:33;;;;;;;18.80;10.57;;;14.90;66.70;;;;;;5019639;28;20245;-74
2021/11/12 07:19:00;;;;;;;14.02;9.93;;;15.30;64.70;;;;;;4999739;28;20188;-74
2021/11/12 07:21:27;;;;;;;16.38;10.85;;;15.60;65.00;;;;;;5022019;28;20242;-74
2021/11/12 07:23:54;;;;;;;20.02;11.68;;;16.00;62.70;;;;;;5021793;28;20180;-72
2021/11/12 07:26:20;;;;;;;22.95;12.32;;;16.30;62.40;;;;;;5032740;28;20214;-74
2021/11/12 07:28:48;;;;;;;17.77;11.93;;;16.50;60.70;;;;;;5044388;28;20180;-74
2021/11/12 07:31:16;;;;;;;22.38;12.43;;;16.70;61.30;;;;;;5042238;28;20203;-73
2021/11/12 07:33:43;;;;;;;17.42;10.90;;;16.80;60.30;;;;;;5042399;28;20184;-73
2021/11/12 07:36:18;;;;;;;16.45;10.75;;;16.90;60.20;;;;;;5044419;28;20199;-74
2021/11/12 07:38:48;;;;;;;15.73;10.02;;;17.00;59.30;;;;;;5043223;28;20183;-73
2021/11/12 07:46:36;;;;;;;17.13;9.35;;;17.10;59.00;;;;;;5045141;28;20581;-74
2021/11/12 07:49:04;;;;;;;15.07;8.73;;;17.10;58.30;;;;;;5043598;28;20256;-74
2021/11/12 07:51:31;;;;;;;12.10;8.85;;;17.20;57.70;;;;;;5057295;28;20223;-73
2021/11/12 07:53:57;;;;;;;14.25;9.73;;;17.60;58.20;;;;;;5045070;28;20191;-74
2021/11/12 07:56:25;;;;;;;13.48;9.80;;;17.90;57.40;;;;;;5045149;28;20188;-73
2021/11/12 07:58:52;;;;;;;17.20;10.48;;;18.20;57.40;;;;;;5042143;28;20211;-74
2021/11/12 08:01:18;;;;;;;14.50;10.43;;;18.40;56.00;;;;;;5041825;28;20187;-73
2021/11/12 08:03:46;;;;;;;13.10;10.75;;;18.60;56.60;;;;;;5044261;28;20665;-74
2021/11/12 08:06:15;;;;;;;12.77;10.52;;;18.80;56.30;;;;;;5044040;28;20680;-73
2021/11/12 08:08:46;;;;;;;14.10;10.35;;;19.10;56.00;;;;;;5046054;28;20179;-73
2021/11/12 08:11:24;;;;;;;13.13;10.18;;;19.40;55.50;;;;;;5045475;28;20246;-74
2021/11/12 08:14:02;;;;;;;18.13;10.88;;;19.70;56.70;;;;;;5042055;28;20215;-80
2021/11/12 08:16:46;;;;;;;15.90;12.07;;;20.00;55.10;;;;;;5042493;28;20215;-79
2021/11/12 08:32:40;;;;;;;26.00;13.65;;;22.60;50.90;;;;;;5046941;28;20218;-75
2021/11/12 08:45:32;;;;;;;21.60;11.38;;;22.90;48.90;;;;;;5042049;28;20195;-77
2021/11/12 08:48:19;;;;;;;16.98;10.90;;;22.70;49.90;;;;;;5033491;28;20184;-78
2021/11/12 08:50:46;;;;;;;17.70;12.45;;;22.60;49.20;;;;;;5014728;28;20194;-78
2021/11/12 08:53:14;;;;;;;13.80;10.73;;;22.40;49.50;;;;;;5031122;28;20275;-73
2021/11/12 08:55:42;;;;;;;19.10;11.90;;;22.30;49.80;;;;;;5014362;28;20176;-74
2021/11/12 08:58:11;;;;;;;16.60;12.02;;;22.40;50.90;;;;;;5027726;28;20437;-76
2021/11/12 09:00:39;;;;;;;18.88;11.57;;;22.80;50.70;;;;;;5029721;28;20180;-78
2021/11/12 09:03:05;;;;;;;14.10;10.60;;;23.20;49.60;;;;;;5029770;28;20190;-77
2021/11/12 09:05:31;;;;;;;11.25;10.05;;;23.60;49.30;;;;;;5024567;28;20277;-77
2021/11/12 09:07:57;;;;;;;11.70;9.85;;;23.90;48.40;;;;;;5029182;28;20184;-77
2021/11/12 09:10:25;;;;;;;13.38;10.35;;;24.60;48.10;;;;;;5031925;28;20222;-74
2021/11/12 09:12:59;;;;;;;13.25;11.38;;;24.60;48.20;;;;;;5029154;28;20610;-78
2021/11/12 09:15:29;;;;;;;13.57;9.77;;;24.70;46.00;;;;;;5031007;28;20279;-78
2021/11/12 09:17:57;;;;;;;13.02;10.30;;;24.70;46.80;;;;;;5040937;28;20250;-78
2021/11/12 09:20:24;;;;;;;13.93;10.68;;;24.80;47.10;;;;;;5042313;28;20261;-79
2021/11/12 09:22:52;;;;;;;14.73;10.07;;;24.60;47.00;;;;;;5042855;28;20187;-79
2021/11/12 09:25:18;;;;;;;16.73;10.35;;;24.80;48.20;;;;;;5040810;28;20179;-80
2021/11/12 09:27:45;;;;;;;12.55;10.35;;;25.00;47.40;;;;;;5043289;28;20211;-82
2021/11/12 09:30:14;;;;;;;15.60;10.55;;;25.10;46.90;;;;;;5041692;28;20624;-81
2021/11/12 09:32:40;;;;;;;12.90;10.27;;;25.30;46.00;;;;;;5042767;28;20219;-81
2021/11/12 09:35:07;;;;;;;15.93;10.85;;;25.30;45.00;;;;;;5042659;28;20201;-80
2021/11/12 09:37:33;;;;;;;11.77;10.52;;;25.40;46.20;;;;;;5043904;28;20242;-80
2021/11/12 09:40:04;;;;;;;17.35;11.93;;;25.30;45.20;;;;;;5042853;28;20239;-78
2021/11/12 09:42:32;;;;;;;16.30;11.77;;;24.70;46.90;;;;;;5039098;28;20184;-80
2021/11/12 09:45:04;;;;;;;14.88;11.48;;;24.70;46.90;;;;;;5039894;28;20682;-79
2021/11/12 09:47:31;;;;;;;15.27;11.75;;;24.40;47.40;;;;;;5041392;28;20171;-79
2021/11/12 09:50:00;;;;;;;18.92;13.07;;;24.10;46.60;;;;;;5042217;28;20996;-80
2021/11/12 09:52:27;;;;;;;19.77;12.77;;;23.70;47.30;;;;;;5041237;28;20215;-79
2021/11/12 09:54:57;;;;;;;18.55;12.20;;;23.20;47.70;;;;;;5042778;28;20184;-80
2021/11/12 09:57:23;;;;;;;14.10;12.32;;;22.90;48.90;;;;;;5042451;28;20188;-80
2021/11/12 09:59:56;;;;;;;17.70;13.50;;;22.70;48.70;;;;;;5043296;28;20186;-79
2021/11/12 10:02:21;;;;;;;19.38;14.05;;;22.50;47.60;;;;;;5041317;28;20187;-80
2021/11/12 10:04:48;;;;;;;16.83;13.07;;;22.50;49.10;;;;;;5046287;28;20249;-80
2021/11/12 10:07:16;;;;;;;21.33;13.43;;;22.80;48.90;;;;;;5044460;28;20215;-80
2021/11/12 10:09:44;;;;;;;18.42;13.32;;;23.00;48.60;;;;;;5042953;28;20203;-80
2021/11/12 10:12:11;;;;;;;18.08;14.20;;;23.10;47.40;;;;;;5044558;28;20211;-79
2021/11/12 10:17:12;;;;;;;20.48;13.88;;;23.20;48.20;;;;;;5042362;28;20229;-79
2021/11/12 10:19:47;;;;;;;23.00;14.23;;;23.30;48.40;;;;;;5043369;28;20183;-79
2021/11/12 10:22:16;;;;;;;22.35;14.63;;;23.40;47.00;;;;;;5042396;28;20760;-79
2021/11/12 10:24:43;;;;;;;17.00;13.23;;;23.40;48.20;;;;;;5042716;28;20187;-79
2021/11/12 10:27:17;;;;;;;22.70;14.63;;;23.40;49.30;;;;;;5042666;28;20172;-79
2021/11/12 10:29:54;;;;;;;21.65;14.43;;;23.60;48.80;;;;;;5044204;28;20242;-80
2021/11/12 10:32:23;;;;;;;20.98;14.68;;;23.80;48.60;;;;;;5044793;28;20247;-80
2021/11/12 10:34:51;;;;;;;25.35;15.77;;;24.00;47.50;;;;;;5043671;28;20196;-80
2021/11/12 10:37:24;;;;;;;23.65;15.23;;;24.00;46.90;;;;;;5046124;28;20693;-80
2021/11/12 10:40:20;;;;;;;19.83;14.95;;;24.10;46.70;;;;;;5043761;28;20232;-80
2021/11/12 10:42:50;;;;;;;21.73;14.77;;;24.20;45.10;;;;;;5043059;28;20214;-80
2021/11/12 10:45:23;;;;;;;19.02;15.52;;;24.40;47.30;;;;;;5043016;28;20198;-80
2021/11/12 10:47:55;;;;;;;19.58;15.25;;;24.80;47.40;;;;;;5043782;28;20215;-80
2021/11/12 10:50:24;;;;;;;27.70;15.95;;;25.10;46.90;;;;;;5044794;28;20179;-80
2021/11/12 10:52:51;;;;;;;25.77;16.42;;;25.40;47.00;;;;;;5046553;28;20215;-80
2021/11/12 10:55:22;;;;;;;22.65;15.30;;;25.70;45.80;;;;;;5044663;28;20184;-79
2021/11/12 10:58:00;;;;;;;22.08;16.15;;;26.00;46.60;;;;;;5041136;28;20192;-79
2021/11/12 11:00:29;;;;;;;19.45;14.75;;;26.50;44.80;;;;;;5042082;28;20418;-79
2021/11/12 11:03:04;;;;;;;19.02;15.20;;;26.60;44.70;;;;;;5044163;28;20191;-80
2021/11/12 11:05:40;;;;;;;22.20;15.13;;;26.70;44.30;;;;;;5044582;28;20180;-80
2021/11/12 11:08:16;;;;;;;21.05;15.63;;;26.60;43.90;;;;;;5042904;28;20726;-80
2021/11/12 11:10:44;;;;;;;21.35;16.63;;;26.60;45.40;;;;;;5046150;28;20274;-78
2021/11/12 11:13:12;;;;;;;23.00;16.42;;;26.60;44.20;;;;;;5045287;28;20182;-78
2021/11/12 11:16:03;;;;;;;21.38;16.77;;;26.50;44.40;;;;;;5043286;28;20661;-78
2021/11/12 11:18:50;;;;;;;20.65;15.25;;;26.20;42.50;;;;;;5041501;28;20187;-77
2021/11/12 11:23:58;;;;;;;27.58;16.80;;;26.00;44.60;;;;;;5044487;28;20627;-79
2021/11/12 11:26:46;;;;;;;24.40;16.80;;;25.70;44.20;;;;;;5041858;28;20248;-82
2021/11/12 11:29:21;;;;;;;18.33;14.55;;;25.50;44.30;;;;;;5044562;28;20192;-79
2021/11/12 11:31:48;;;;;;;21.27;15.55;;;25.40;44.30;;;;;;5043894;28;20207;-76
2021/11/12 11:34:13;;;;;;;19.65;15.15;;;25.50;46.60;;;;;;5045327;28;20202;-78
2021/11/12 11:36:44;;;;;;;24.65;15.55;;;25.60;44.70;;;;;;5045010;28;20191;-79
2021/11/12 11:39:18;;;;;;;26.02;16.40;;;25.20;45.70;;;;;;5042232;28;20183;-78
2021/11/12 11:41:45;;;;;;;22.38;16.85;;;25.00;45.60;;;;;;5044038;28;20183;-78
2021/11/12 11:44:15;;;;;;;23.40;15.48;;;24.70;46.20;;;;;;5043285;28;20678;-78
2021/11/12 11:46:45;;;;;;;22.23;15.88;;;24.40;46.50;;;;;;5042635;28;20195;-78
2021/11/12 11:49:20;;;;;;;20.05;14.90;;;23.70;46.30;;;;;;5041499;28;20273;-78
2021/11/12 11:51:50;;;;;;;27.33;17.13;;;23.20;47.80;;;;;;5041588;28;20359;-78
2021/11/12 11:54:18;;;;;;;22.65;16.42;;;22.70;46.60;;;;;;5043488;28;20184;-78
2021/11/12 11:57:10;;;;;;;26.05;17.20;;;22.40;48.30;;;;;;5042183;28;20577;-78
2021/11/12 11:59:36;;;;;;;19.38;15.82;;;22.30;47.30;;;;;;5043056;28;20484;-78
2021/11/12 12:02:10;;;;;;;24.58;16.23;;;22.20;47.70;;;;;;5045020;28;20192;-78
2021/11/12 12:04:41;;;;;;;20.77;15.35;;;22.20;48.30;;;;;;5044773;28;20183;-78
2021/11/12 12:07:14;;;;;;;21.63;15.52;;;22.40;49.00;;;;;;5044494;28;20187;-78
2021/11/12 12:09:46;;;;;;;22.13;15.63;;;22.70;48.50;;;;;;5043405;28;20220;-78
2021/11/12 12:12:13;;;;;;;18.05;14.68;;;23.10;48.10;;;;;;5043973;28;20221;-78
2021/11/12 12:14:39;;;;;;;23.63;15.82;;;23.50;47.90;;;;;;5044042;28;20219;-78
2021/11/12 12:17:23;;;;;;;19.92;15.82;;;23.70;46.60;;;;;;5046473;28;20213;-78
2021/11/12 12:19:59;;;;;;;18.83;15.05;;;23.80;46.80;;;;;;5046947;28;20187;-79
2021/11/12 13:25:57;;;;;;;23.45;17.17;;;21.70;48.30;;;;;;5021215;28;20184;-74
2021/11/12 13:28:24;;;;;;;25.75;16.15;;;21.80;48.40;;;;;;5039847;28;20187;-74
2021/11/12 13:30:53;;;;;;;25.23;16.00;;;21.80;48.00;;;;;;5038719;28;20192;-75
2021/11/12 13:33:34;;;;;;;21.50;15.55;;;21.70;48.60;;;;;;5040459;28;20688;-75
2021/11/12 13:36:23;;;;;;;20.48;15.45;;;21.60;48.20;;;;;;5040178;28;20199;-74
2021/11/12 13:39:01;;;;;;;21.35;15.65;;;21.70;47.90;;;;;;5036393;28;20884;-75
2021/11/12 13:41:28;;;;;;;23.02;16.35;;;21.60;48.40;;;;;;5035906;28;20176;-74
2021/11/12 13:44:06;;;;;;;22.92;15.02;;;21.60;48.80;;;;;;5039935;28;20270;-75
2021/11/12 13:46:49;;;;;;;18.90;14.80;;;21.60;48.30;;;;;;5039219;28;20195;-75
2021/11/12 13:49:34;;;;;;;22.33;15.60;;;21.60;47.70;;;;;;5039600;28;20198;-75
2021/11/12 13:52:27;;;;;;;22.75;14.43;;;21.60;47.50;;;;;;5039930;28;20222;-74
2021/11/12 13:55:21;;;;;;;23.20;15.13;;;21.50;47.70;;;;;;5041872;28;20180;-75
2021/11/12 13:57:58;;;;;;;18.33;14.98;;;21.40;48.00;;;;;;5040614;28;20649;-75
2021/11/12 14:00:29;;;;;;;23.73;15.00;;;21.20;48.10;;;;;;5041083;28;20180;-75
2021/11/12 14:03:06;;;;;;;24.25;15.50;;;21.10;49.10;;;;;;5039209;28;20214;-75
2021/11/12 14:05:34;;;;;;;22.40;14.90;;;20.80;48.80;;;;;;5039921;28;20187;-75
2021/11/12 14:08:05;;;;;;;21.10;15.00;;;20.40;50.00;;;;;;5039287;28;20672;-75
2021/11/12 14:10:34;;;;;;;21.52;15.02;;;20.10;50.20;;;;;;5040822;28;20176;-75
2021/11/12 14:13:03;;;;;;;23.95;16.08;;;19.80;50.00;;;;;;5040583;28;20226;-75
2021/11/12 14:15:36;;;;;;;24.50;17.27;;;19.40;50.20;;;;;;5039293;28;20587;-76
2021/11/12 14:24:16;;;;;;;20.85;14.80;;;18.10;52.00;;;;;;5021310;28;20266;-76
2021/11/12 14:35:24;;;;;;;24.83;15.15;;;17.20;53.60;;;;;;4961620;28;20214;-75
2021/11/12 14:45:36;;;;;;;23.92;16.20;;;16.60;54.50;;;;;;4963288;28;20202;-76
2021/11/12 14:48:27;;;;;;;27.00;15.82;;;16.30;55.20;;;;;;4965694;28;20301;-76
2021/11/12 14:51:06;;;;;;;27.38;16.85;;;16.10;55.30;;;;;;4963989;28;20194;-75
2021/11/12 14:56:28;;;;;;;22.63;15.23;;;15.70;56.20;;;;;;4965160;28;21868;-76
2021/11/12 14:59:05;;;;;;;22.40;15.63;;;15.40;57.50;;;;;;4983429;28;20197;-75
2021/11/12 15:01:33;;;;;;;25.45;14.77;;;15.20;58.60;;;;;;5002951;28;20184;-74
2021/11/12 15:04:00;;;;;;;20.80;13.45;;;14.90;59.20;;;;;;4985862;28;20185;-75
2021/11/12 15:06:28;;;;;;;20.70;13.95;;;14.70;59.00;;;;;;5002391;28;20545;-75
2021/11/12 15:09:07;;;;;;;31.85;17.77;;;14.50;59.60;;;;;;5001820;28;20267;-75
2021/11/12 15:11:34;;;;;;;27.80;15.57;;;14.30;60.30;;;;;;5010224;28;20708;-74
2021/11/12 15:14:10;;;;;;;22.08;15.10;;;14.10;60.70;;;;;;5045067;28;20182;-74
2021/11/12 15:16:38;;;;;;;23.50;14.77;;;14.00;60.90;;;;;;5044696;28;20226;-76
2021/11/12 15:19:05;;;;;;;22.65;15.38;;;13.80;61.40;;;;;;5041969;28;20947;-75
2021/11/12 15:21:39;;;;;;;26.65;14.68;;;13.60;62.30;;;;;;5043254;28;20246;-75
2021/11/12 15:24:28;;;;;;;25.80;13.95;;;13.50;62.20;;;;;;5043656;28;20309;-75
2021/11/12 15:27:12;;;;;;;31.92;15.18;;;13.30;63.00;;;;;;5043298;28;21640;-75
2021/11/12 15:29:48;;;;;;;20.50;12.77;;;13.20;63.00;;;;;;5045745;28;20199;-75
2021/11/12 15:34:52;;;;;;;25.17;13.32;;;12.80;63.40;;;;;;5042768;28;20665;-75
2021/11/12 15:40:10;;;;;;;18.77;12.45;;;12.60;64.20;;;;;;5043663;28;20201;-75
2021/11/12 15:45:37;;;;;;;24.15;13.73;;;12.30;64.90;;;;;;5045329;28;20260;-76
2021/11/12 15:48:24;;;;;;;25.33;12.23;;;12.10;65.20;;;;;;5044467;28;20287;-76
2021/11/12 15:51:21;;;;;;;21.83;11.90;;;12.00;65.20;;;;;;5044305;28;20187;-76
2021/11/12 15:59:38;;;;;;;20.95;10.23;;;11.60;66.30;;;;;;5048595;28;20198;-76
2021/11/12 16:05:25;;;;;;;27.27;10.05;;;11.50;67.30;;;;;;5044503;28;20183;-75
2021/11/12 16:18:19;;;;;;;15.88;10.82;;;11.00;68.40;;;;;;5023469;28;20191;-76
2021/11/12 16:21:12;;;;;;;18.13;10.98;;;10.80;68.50;;;;;;5000095;28;20277;-75
2021/11/12 16:26:27;;;;;;;16.45;10.77;;;10.60;68.50;;;;;;5021680;28;20192;-77
2021/11/12 16:31:18;;;;;;;24.85;11.95;;;10.40;69.00;;;;;;5022011;28;20210;-77
2021/11/12 16:33:44;;;;;;;19.48;12.20;;;10.40;69.50;;;;;;5022070;28;20180;-76
2021/11/12 16:36:10;;;;;;;16.63;10.57;;;10.40;69.70;;;;;;5022910;28;20196;-77
2021/11/12 16:38:36;;;;;;;22.15;12.25;;;10.30;69.90;;;;;;5022165;28;20291;-77
2021/11/12 16:41:19;;;;;;;20.90;12.00;;;10.20;70.40;;;;;;5022065;28;20292;-76
2021/11/12 16:44:08;;;;;;;19.50;12.35;;;10.20;70.10;;;;;;5020316;28;20320;-77
2021/11/12 16:46:57;;;;;;;19.75;11.90;;;10.10;70.60;;;;;;5019297;28;20219;-77
2021/11/12 17:02:12;;;;;;;21.20;12.55;;;9.80;71.40;;;;;;5043767;28;20183;-77
2021/11/12 17:18:25;;;;;;;24.33;12.23;;;9.50;73.40;;;;;;4931820;29;20284;-76
2021/11/12 17:47:46;;;;;;;19.03;10.60;;;9.10;71.60;;;;;;4898266;29;20267;-78
2021/11/12 17:50:23;;;;;;;21.03;9.50;;;9.00;71.70;;;;;;4895706;29;20188;-78
2021/11/12 18:03:52;;;;;;;20.70;11.50;;;8.90;72.60;;;;;;4962521;28;20305;-77
2021/11/12 18:06:34;;;;;;;18.47;11.70;;;8.90;72.60;;;;;;4961357;28;20206;-79
2021/11/12 21:48:08;;;;;;;35.57;16.30;;;5.70;81.60;;;;;;5043813;28;20218;-74
2021/11/12 21:50:36;;;;;;;30.83;16.13;;;5.70;81.20;;;;;;5044258;28;20180;-74
2021/11/12 21:53:04;;;;;;;28.27;16.47;;;5.70;81.20;;;;;;5044814;28;20215;-74
2021/11/12 21:55:29;;;;;;;30.53;16.50;;;5.70;81.10;;;;;;5044445;28;20233;-75
2021/11/12 21:57:55;;;;;;;31.43;16.77;;;5.70;80.90;;;;;;5043798;28;20188;-74
2021/11/12 22:00:21;;;;;;;30.57;15.20;;;5.70;80.80;;;;;;5044370;28;20613;-74
2021/11/12 22:02:47;;;;;;;36.17;16.53;;;5.60;81.00;;;;;;5041433;28;20190;-74
2021/11/12 22:05:13;;;;;;;22.77;13.43;;;5.60;80.60;;;;;;5039127;28;20265;-74
2021/11/12 22:07:38;;;;;;;30.30;14.83;;;5.60;80.80;;;;;;5045293;28;20176;-74
2021/11/12 22:10:06;;;;;;;37.47;15.17;;;5.50;80.90;;;;;;5041086;28;20263;-74
2021/11/12 22:12:32;;;;;;;42.10;13.43;;;5.50;81.30;;;;;;5041996;28;20223;-74
2021/11/12 22:14:58;;;;;;;26.13;14.63;;;5.40;81.60;;;;;;5042850;28;20183;-72
2021/11/12 22:17:24;;;;;;;26.40;12.93;;;5.40;81.60;;;;;;5045462;28;20203;-73
2021/11/12 22:19:50;;;;;;;24.67;13.53;;;5.40;81.40;;;;;;5042736;28;20187;-74
2021/11/12 22:22:16;;;;;;;28.33;13.00;;;5.40;81.80;;;;;;5042315;28;20188;-74
2021/11/12 22:24:42;;;;;;;22.60;12.70;;;5.30;81.80;;;;;;5045402;28;20559;-74
2021/11/12 22:27:09;;;;;;;24.27;13.27;;;5.30;82.10;;;;;;5044050;28;20180;-74
2021/11/12 22:29:35;;;;;;;19.70;12.13;;;5.30;82.20;;;;;;5040825;28;20188;-74
2021/11/12 22:32:02;;;;;;;25.13;12.73;;;5.30;82.40;;;;;;5044718;28;20238;-74
2021/11/12 22:34:27;;;;;;;28.73;14.83;;;5.20;82.20;;;;;;5043623;28;20250;-74
2021/11/12 22:36:53;;;;;;;26.50;13.50;;;5.20;82.10;;;;;;5042527;28;20184;-74
2021/11/12 22:39:21;;;;;;;30.77;13.93;;;5.20;82.00;;;;;;5041756;28;20207;-74
2021/11/12 22:41:48;;;;;;;34.47;14.37;;;5.20;82.30;;;;;;5043999;28;20642;-74
2021/11/12 22:44:15;;;;;;;21.00;12.70;;;5.20;82.40;;;;;;5047887;28;20659;-74
2021/11/12 22:46:41;;;;;;;25.50;14.63;;;5.20;82.50;;;;;;5042877;28;20632;-72
2021/11/12 22:49:07;;;;;;;35.47;15.17;;;5.20;82.30;;;;;;5048322;28;20237;-74
2021/11/12 22:51:35;;;;;;;30.67;14.77;;;5.20;82.50;;;;;;5047475;28;20593;-74
2021/11/12 22:54:01;;;;;;;19.37;12.30;;;5.10;83.00;;;;;;5045921;28;20194;-74
2021/11/12 22:56:27;;;;;;;26.80;13.83;;;5.10;83.10;;;;;;5048343;28;20207;-74
2021/11/12 22:58:54;;;;;;;24.20;13.07;;;5.10;82.90;;;;;;5045992;28;20184;-74
2021/11/12 23:01:27;;;;;;;29.20;12.17;;;5.10;82.70;;;;;;5044256;28;20180;-73
2021/11/12 23:03:53;;;;;;;24.63;12.20;;;5.10;82.70;;;;;;5046141;28;20194;-74
2021/11/12 23:06:18;;;;;;;22.77;12.40;;;5.10;82.40;;;;;;5047163;28;20179;-74
2021/11/12 23:08:44;;;;;;;18.03;11.80;;;5.10;82.40;;;;;;5044296;28;21827;-74
2021/11/12 23:11:12;;;;;;;29.30;11.97;;;5.10;82.30;;;;;;5044528;28;20640;-73
2021/11/12 23:13:40;;;;;;;16.90;11.13;;;5.00;82.40;;;;;;5041770;28;20184;-73
2021/11/12 23:16:06;;;;;;;18.03;11.33;;;5.00;82.90;;;;;;5041362;28;20225;-73